sensor_id;sensor_type;location;lat;lon;timestamp;temperature;humidity
10121;DHT22;5100;45.176;5.714;2022-07-23T00:00:58;33.50;42.20
10121;DHT22;5100;45.176;5.714;2022-07-23T00:03:25;33.50;42.20
10121;DHT22;5100;45.176;5.714;2022-07-23T00:05:51;33.50;42.20
10121;DHT22;5100;45.176;5.714;2022-07-23T00:08:17;33.50;42.20
10121;DHT22;5100;45.176;5.714;2022-07-23T00:10:43;33.50;42.20
10121;DHT22;5100;45.176;5.714;2022-07-23T00:13:09;33.40;42.20
10121;DHT22;5100;45.176;5.714;2022-07-23T00:15:35;33.40;42.20
10121;DHT22;5100;45.176;5.714;2022-07-23T00:18:02;33.40;42.10
10121;DHT22;5100;45.176;5.714;2022-07-23T00:20:27;33.30;42.00
10121;DHT22;5100;45.176;5.714;2022-07-23T00:22:54;33.30;42.00
10121;DHT22;5100;45.176;5.714;2022-07-23T00:25:24;33.30;42.10
10121;DHT22;5100;45.176;5.714;2022-07-23T00:27:50;33.30;42.20
10121;DHT22;5100;45.176;5.714;2022-07-23T00:30:16;33.20;42.30
10121;DHT22;5100;45.176;5.714;2022-07-23T00:32:50;33.20;42.40
10121;DHT22;5100;45.176;5.714;2022-07-23T00:35:20;33.20;42.60
10121;DHT22;5100;45.176;5.714;2022-07-23T00:37:47;33.10;42.80
10121;DHT22;5100;45.176;5.714;2022-07-23T00:40:13;33.10;43.00
10121;DHT22;5100;45.176;5.714;2022-07-23T00:42:39;33.00;43.30
10121;DHT22;5100;45.176;5.714;2022-07-23T00:45:06;33.00;43.40
10121;DHT22;5100;45.176;5.714;2022-07-23T00:47:33;33.00;43.60
10121;DHT22;5100;45.176;5.714;2022-07-23T00:49:59;32.90;43.80
10121;DHT22;5100;45.176;5.714;2022-07-23T00:52:26;32.90;44.00
10121;DHT22;5100;45.176;5.714;2022-07-23T00:54:52;32.90;44.10
10121;DHT22;5100;45.176;5.714;2022-07-23T00:57:18;32.90;44.20
10121;DHT22;5100;45.176;5.714;2022-07-23T00:59:44;32.80;44.40
10121;DHT22;5100;45.176;5.714;2022-07-23T01:02:11;32.80;44.60
10121;DHT22;5100;45.176;5.714;2022-07-23T01:04:38;32.80;44.90
10121;DHT22;5100;45.176;5.714;2022-07-23T01:07:04;32.80;45.10
10121;DHT22;5100;45.176;5.714;2022-07-23T01:09:31;32.80;45.20
10121;DHT22;5100;45.176;5.714;2022-07-23T01:11:57;32.70;45.50
10121;DHT22;5100;45.176;5.714;2022-07-23T01:14:24;32.70;45.60
10121;DHT22;5100;45.176;5.714;2022-07-23T01:16:51;32.70;45.80
10121;DHT22;5100;45.176;5.714;2022-07-23T01:19:17;32.70;46.00
10121;DHT22;5100;45.176;5.714;2022-07-23T01:21:47;32.70;46.30
10121;DHT22;5100;45.176;5.714;2022-07-23T01:24:13;32.60;46.40
10121;DHT22;5100;45.176;5.714;2022-07-23T01:26:45;32.60;46.50
10121;DHT22;5100;45.176;5.714;2022-07-23T01:29:12;32.60;46.70
10121;DHT22;5100;45.176;5.714;2022-07-23T01:31:40;32.60;46.70
10121;DHT22;5100;45.176;5.714;2022-07-23T01:34:07;32.60;46.80
10121;DHT22;5100;45.176;5.714;2022-07-23T01:36:34;32.60;46.80
10121;DHT22;5100;45.176;5.714;2022-07-23T01:39:00;32.60;46.90
10121;DHT22;5100;45.176;5.714;2022-07-23T01:41:27;32.60;46.90
10121;DHT22;5100;45.176;5.714;2022-07-23T01:43:53;32.60;46.90
10121;DHT22;5100;45.176;5.714;2022-07-23T01:46:20;32.50;46.90
10121;DHT22;5100;45.176;5.714;2022-07-23T01:48:46;32.60;46.90
10121;DHT22;5100;45.176;5.714;2022-07-23T01:51:13;32.50;46.90
10121;DHT22;5100;45.176;5.714;2022-07-23T01:53:40;32.50;46.90
10121;DHT22;5100;45.176;5.714;2022-07-23T01:56:06;32.50;46.90
10121;DHT22;5100;45.176;5.714;2022-07-23T01:58:33;32.50;46.50
10121;DHT22;5100;45.176;5.714;2022-07-23T02:00:59;32.50;46.40
10121;DHT22;5100;45.176;5.714;2022-07-23T02:03:28;32.50;46.00
10121;DHT22;5100;45.176;5.714;2022-07-23T02:05:54;32.50;45.70
10121;DHT22;5100;45.176;5.714;2022-07-23T02:08:21;32.50;45.50
10121;DHT22;5100;45.176;5.714;2022-07-23T02:10:48;32.50;45.40
10121;DHT22;5100;45.176;5.714;2022-07-23T02:13:17;32.50;45.30
10121;DHT22;5100;45.176;5.714;2022-07-23T02:15:44;32.50;45.30
10121;DHT22;5100;45.176;5.714;2022-07-23T02:18:10;32.50;45.30
10121;DHT22;5100;45.176;5.714;2022-07-23T02:20:38;32.40;45.30
10121;DHT22;5100;45.176;5.714;2022-07-23T02:23:07;32.40;45.20
10121;DHT22;5100;45.176;5.714;2022-07-23T02:25:34;32.40;45.60
10121;DHT22;5100;45.176;5.714;2022-07-23T02:28:06;32.50;46.20
10121;DHT22;5100;45.176;5.714;2022-07-23T02:30:32;32.40;47.30
10121;DHT22;5100;45.176;5.714;2022-07-23T02:32:59;32.40;48.20
10121;DHT22;5100;45.176;5.714;2022-07-23T02:35:29;32.40;48.60
10121;DHT22;5100;45.176;5.714;2022-07-23T02:37:56;32.40;49.10
10121;DHT22;5100;45.176;5.714;2022-07-23T02:40:22;32.40;49.40
10121;DHT22;5100;45.176;5.714;2022-07-23T02:42:49;32.40;49.70
10121;DHT22;5100;45.176;5.714;2022-07-23T02:45:15;32.30;50.20
10121;DHT22;5100;45.176;5.714;2022-07-23T02:47:41;32.30;50.30
10121;DHT22;5100;45.176;5.714;2022-07-23T02:50:08;32.30;50.60
10121;DHT22;5100;45.176;5.714;2022-07-23T02:52:35;32.20;50.80
10121;DHT22;5100;45.176;5.714;2022-07-23T02:55:01;32.20;50.90
10121;DHT22;5100;45.176;5.714;2022-07-23T02:57:30;32.10;51.00
10121;DHT22;5100;45.176;5.714;2022-07-23T02:59:56;32.10;51.00
10121;DHT22;5100;45.176;5.714;2022-07-23T03:02:22;32.10;51.00
10121;DHT22;5100;45.176;5.714;2022-07-23T03:04:50;32.00;51.00
10121;DHT22;5100;45.176;5.714;2022-07-23T03:07:17;32.00;51.10
10121;DHT22;5100;45.176;5.714;2022-07-23T03:09:43;32.00;51.10
10121;DHT22;5100;45.176;5.714;2022-07-23T03:12:09;31.90;51.10
10121;DHT22;5100;45.176;5.714;2022-07-23T03:14:35;31.90;51.10
10121;DHT22;5100;45.176;5.714;2022-07-23T03:17:01;31.90;51.20
10121;DHT22;5100;45.176;5.714;2022-07-23T03:19:28;31.80;51.10
10121;DHT22;5100;45.176;5.714;2022-07-23T03:21:54;31.80;51.20
10121;DHT22;5100;45.176;5.714;2022-07-23T03:24:20;31.80;51.10
10121;DHT22;5100;45.176;5.714;2022-07-23T03:26:54;31.80;51.10
10121;DHT22;5100;45.176;5.714;2022-07-23T03:29:20;31.70;51.30
10121;DHT22;5100;45.176;5.714;2022-07-23T03:31:46;31.70;51.30
10121;DHT22;5100;45.176;5.714;2022-07-23T03:34:12;31.70;51.20
10121;DHT22;5100;45.176;5.714;2022-07-23T03:36:39;31.70;51.10
10121;DHT22;5100;45.176;5.714;2022-07-23T03:39:05;31.70;51.00
10121;DHT22;5100;45.176;5.714;2022-07-23T03:41:31;31.70;51.00
10121;DHT22;5100;45.176;5.714;2022-07-23T03:43:58;31.60;51.00
10121;DHT22;5100;45.176;5.714;2022-07-23T03:46:25;31.60;51.10
10121;DHT22;5100;45.176;5.714;2022-07-23T03:48:51;31.60;51.20
10121;DHT22;5100;45.176;5.714;2022-07-23T03:51:17;31.60;51.10
10121;DHT22;5100;45.176;5.714;2022-07-23T03:53:43;31.60;51.00
10121;DHT22;5100;45.176;5.714;2022-07-23T03:56:09;31.60;50.90
10121;DHT22;5100;45.176;5.714;2022-07-23T03:58:36;31.60;50.90
10121;DHT22;5100;45.176;5.714;2022-07-23T04:01:02;31.60;51.10
10121;DHT22;5100;45.176;5.714;2022-07-23T04:03:28;31.70;51.20
10121;DHT22;5100;45.176;5.714;2022-07-23T04:05:54;31.70;51.10
10121;DHT22;5100;45.176;5.714;2022-07-23T04:08:20;31.70;51.10
10121;DHT22;5100;45.176;5.714;2022-07-23T04:10:47;31.70;51.10
10121;DHT22;5100;45.176;5.714;2022-07-23T04:13:13;31.70;50.50
10121;DHT22;5100;45.176;5.714;2022-07-23T04:15:39;31.70;50.20
10121;DHT22;5100;45.176;5.714;2022-07-23T04:18:06;31.70;49.90
10121;DHT22;5100;45.176;5.714;2022-07-23T04:20:32;31.70;49.70
10121;DHT22;5100;45.176;5.714;2022-07-23T04:22:59;31.70;49.50
10121;DHT22;5100;45.176;5.714;2022-07-23T04:25:25;31.70;49.30
10121;DHT22;5100;45.176;5.714;2022-07-23T04:27:51;31.70;49.10
10121;DHT22;5100;45.176;5.714;2022-07-23T04:30:17;31.70;48.90
10121;DHT22;5100;45.176;5.714;2022-07-23T04:32:43;31.70;48.80
10121;DHT22;5100;45.176;5.714;2022-07-23T04:35:11;31.70;49.30
10121;DHT22;5100;45.176;5.714;2022-07-23T04:37:37;31.70;50.20
10121;DHT22;5100;45.176;5.714;2022-07-23T04:40:05;31.70;50.40
10121;DHT22;5100;45.176;5.714;2022-07-23T04:42:31;31.70;50.70
10121;DHT22;5100;45.176;5.714;2022-07-23T04:44:57;31.70;50.80
10121;DHT22;5100;45.176;5.714;2022-07-23T04:47:23;31.70;51.10
10121;DHT22;5100;45.176;5.714;2022-07-23T04:49:49;31.60;51.50
10121;DHT22;5100;45.176;5.714;2022-07-23T04:52:15;31.60;51.60
10121;DHT22;5100;45.176;5.714;2022-07-23T04:54:42;31.60;51.70
10121;DHT22;5100;45.176;5.714;2022-07-23T04:57:07;31.50;51.80
10121;DHT22;5100;45.176;5.714;2022-07-23T04:59:33;31.50;51.90
10121;DHT22;5100;45.176;5.714;2022-07-23T05:02:01;31.40;51.80
10121;DHT22;5100;45.176;5.714;2022-07-23T05:04:27;31.40;51.80
10121;DHT22;5100;45.176;5.714;2022-07-23T05:06:53;31.40;52.00
10121;DHT22;5100;45.176;5.714;2022-07-23T05:09:19;31.30;52.40
10121;DHT22;5100;45.176;5.714;2022-07-23T05:11:45;31.30;53.10
10121;DHT22;5100;45.176;5.714;2022-07-23T05:14:12;31.20;53.80
10121;DHT22;5100;45.176;5.714;2022-07-23T05:16:38;31.20;54.10
10121;DHT22;5100;45.176;5.714;2022-07-23T05:19:06;31.20;54.00
10121;DHT22;5100;45.176;5.714;2022-07-23T05:21:33;31.10;54.30
10121;DHT22;5100;45.176;5.714;2022-07-23T05:24:00;31.10;54.50
10121;DHT22;5100;45.176;5.714;2022-07-23T05:26:26;31.10;55.00
10121;DHT22;5100;45.176;5.714;2022-07-23T05:28:52;31.00;55.30
10121;DHT22;5100;45.176;5.714;2022-07-23T05:31:19;31.00;55.80
10121;DHT22;5100;45.176;5.714;2022-07-23T05:33:45;30.90;55.80
10121;DHT22;5100;45.176;5.714;2022-07-23T05:36:12;30.90;56.60
10121;DHT22;5100;45.176;5.714;2022-07-23T05:38:39;30.90;56.50
10121;DHT22;5100;45.176;5.714;2022-07-23T05:41:06;30.90;57.70
10121;DHT22;5100;45.176;5.714;2022-07-23T05:43:32;30.80;58.60
10121;DHT22;5100;45.176;5.714;2022-07-23T05:45:58;30.80;58.90
10121;DHT22;5100;45.176;5.714;2022-07-23T05:48:24;30.80;59.20
10121;DHT22;5100;45.176;5.714;2022-07-23T05:50:51;30.70;58.90
10121;DHT22;5100;45.176;5.714;2022-07-23T05:53:18;30.60;58.70
10121;DHT22;5100;45.176;5.714;2022-07-23T05:55:45;30.60;58.60
10121;DHT22;5100;45.176;5.714;2022-07-23T05:58:11;30.60;58.70
10121;DHT22;5100;45.176;5.714;2022-07-23T06:00:38;30.50;59.00
10121;DHT22;5100;45.176;5.714;2022-07-23T06:03:05;30.50;59.10
10121;DHT22;5100;45.176;5.714;2022-07-23T06:05:32;30.50;59.00
10121;DHT22;5100;45.176;5.714;2022-07-23T06:07:58;30.40;59.20
10121;DHT22;5100;45.176;5.714;2022-07-23T06:10:25;30.40;59.20
10121;DHT22;5100;45.176;5.714;2022-07-23T06:12:50;30.40;59.20
10121;DHT22;5100;45.176;5.714;2022-07-23T06:15:17;30.40;59.30
10121;DHT22;5100;45.176;5.714;2022-07-23T06:17:44;30.40;59.30
10121;DHT22;5100;45.176;5.714;2022-07-23T06:20:10;30.30;59.30
10121;DHT22;5100;45.176;5.714;2022-07-23T06:22:37;30.30;59.10
10121;DHT22;5100;45.176;5.714;2022-07-23T06:25:03;30.30;58.90
10121;DHT22;5100;45.176;5.714;2022-07-23T06:27:29;30.30;58.70
10121;DHT22;5100;45.176;5.714;2022-07-23T06:29:55;30.30;58.50
10121;DHT22;5100;45.176;5.714;2022-07-23T06:32:22;30.30;58.50
10121;DHT22;5100;45.176;5.714;2022-07-23T06:34:49;30.30;58.40
10121;DHT22;5100;45.176;5.714;2022-07-23T06:37:15;30.30;58.30
10121;DHT22;5100;45.176;5.714;2022-07-23T06:39:42;30.30;58.30
10121;DHT22;5100;45.176;5.714;2022-07-23T06:42:08;30.20;58.40
10121;DHT22;5100;45.176;5.714;2022-07-23T06:44:35;30.20;58.30
10121;DHT22;5100;45.176;5.714;2022-07-23T06:47:01;30.20;58.30
10121;DHT22;5100;45.176;5.714;2022-07-23T06:49:27;30.30;58.20
10121;DHT22;5100;45.176;5.714;2022-07-23T06:51:57;30.30;58.30
10121;DHT22;5100;45.176;5.714;2022-07-23T06:54:23;30.30;58.20
10121;DHT22;5100;45.176;5.714;2022-07-23T06:56:50;30.40;57.80
10121;DHT22;5100;45.176;5.714;2022-07-23T06:59:16;30.50;57.70
10121;DHT22;5100;45.176;5.714;2022-07-23T07:01:42;30.60;57.80
10121;DHT22;5100;45.176;5.714;2022-07-23T07:04:08;30.60;57.80
10121;DHT22;5100;45.176;5.714;2022-07-23T07:06:34;30.70;57.60
10121;DHT22;5100;45.176;5.714;2022-07-23T07:09:00;30.80;57.60
10121;DHT22;5100;45.176;5.714;2022-07-23T07:11:26;30.90;57.30
10121;DHT22;5100;45.176;5.714;2022-07-23T07:13:52;30.90;57.10
10121;DHT22;5100;45.176;5.714;2022-07-23T07:16:18;31.00;56.90
10121;DHT22;5100;45.176;5.714;2022-07-23T07:18:44;31.00;57.00
10121;DHT22;5100;45.176;5.714;2022-07-23T07:21:10;31.10;57.20
10121;DHT22;5100;45.176;5.714;2022-07-23T07:23:36;31.20;56.80
10121;DHT22;5100;45.176;5.714;2022-07-23T07:26:02;31.20;56.60
10121;DHT22;5100;45.176;5.714;2022-07-23T07:28:28;31.30;56.60
10121;DHT22;5100;45.176;5.714;2022-07-23T07:30:54;31.30;56.10
10121;DHT22;5100;45.176;5.714;2022-07-23T07:33:20;31.40;56.00
10121;DHT22;5100;45.176;5.714;2022-07-23T07:35:46;31.40;55.80
10121;DHT22;5100;45.176;5.714;2022-07-23T07:38:13;31.50;55.80
10121;DHT22;5100;45.176;5.714;2022-07-23T07:40:39;31.50;55.70
10121;DHT22;5100;45.176;5.714;2022-07-23T07:43:05;31.50;55.50
10121;DHT22;5100;45.176;5.714;2022-07-23T07:45:32;31.50;55.30
10121;DHT22;5100;45.176;5.714;2022-07-23T07:47:58;31.50;55.30
10121;DHT22;5100;45.176;5.714;2022-07-23T07:50:24;31.50;55.10
10121;DHT22;5100;45.176;5.714;2022-07-23T07:52:50;31.50;55.30
10121;DHT22;5100;45.176;5.714;2022-07-23T07:55:16;31.50;55.20
10121;DHT22;5100;45.176;5.714;2022-07-23T07:57:42;31.50;55.20
10121;DHT22;5100;45.176;5.714;2022-07-23T08:00:10;31.40;55.10
10121;DHT22;5100;45.176;5.714;2022-07-23T08:02:51;31.40;55.30
10121;DHT22;5100;45.176;5.714;2022-07-23T08:05:26;31.40;55.50
10121;DHT22;5100;45.176;5.714;2022-07-23T08:07:53;31.40;55.60
10121;DHT22;5100;45.176;5.714;2022-07-23T08:10:19;31.40;55.50
10121;DHT22;5100;45.176;5.714;2022-07-23T08:12:48;31.40;55.60
10121;DHT22;5100;45.176;5.714;2022-07-23T08:15:16;31.50;55.70
10121;DHT22;5100;45.176;5.714;2022-07-23T08:17:44;31.50;55.80
10121;DHT22;5100;45.176;5.714;2022-07-23T08:20:12;31.50;56.00
10121;DHT22;5100;45.176;5.714;2022-07-23T08:22:49;31.50;56.00
10121;DHT22;5100;45.176;5.714;2022-07-23T08:25:27;31.50;56.10
10121;DHT22;5100;45.176;5.714;2022-07-23T08:27:54;31.50;56.10
10121;DHT22;5100;45.176;5.714;2022-07-23T08:30:20;31.50;56.20
10121;DHT22;5100;45.176;5.714;2022-07-23T08:35:27;31.60;55.90
10121;DHT22;5100;45.176;5.714;2022-07-23T08:37:54;31.60;55.90
10121;DHT22;5100;45.176;5.714;2022-07-23T08:40:21;31.60;55.70
10121;DHT22;5100;45.176;5.714;2022-07-23T08:42:50;31.60;55.60
10121;DHT22;5100;45.176;5.714;2022-07-23T08:45:19;31.70;55.50
10121;DHT22;5100;45.176;5.714;2022-07-23T08:47:53;31.70;55.50
10121;DHT22;5100;45.176;5.714;2022-07-23T08:50:20;31.80;55.50
10121;DHT22;5100;45.176;5.714;2022-07-23T08:52:48;31.80;55.40
10121;DHT22;5100;45.176;5.714;2022-07-23T08:55:17;31.90;55.50
10121;DHT22;5100;45.176;5.714;2022-07-23T08:57:43;31.90;55.40
10121;DHT22;5100;45.176;5.714;2022-07-23T09:00:10;31.90;55.20
10121;DHT22;5100;45.176;5.714;2022-07-23T09:02:43;32.00;54.90
10121;DHT22;5100;45.176;5.714;2022-07-23T09:05:10;32.00;54.70
10121;DHT22;5100;45.176;5.714;2022-07-23T09:08:22;32.00;54.60
10121;DHT22;5100;45.176;5.714;2022-07-23T09:11:05;32.00;54.40
10121;DHT22;5100;45.176;5.714;2022-07-23T09:16:10;32.00;54.00
10121;DHT22;5100;45.176;5.714;2022-07-23T09:18:46;32.00;54.00
10121;DHT22;5100;45.176;5.714;2022-07-23T09:21:15;32.00;54.00
10121;DHT22;5100;45.176;5.714;2022-07-23T09:23:53;32.00;54.00
10121;DHT22;5100;45.176;5.714;2022-07-23T09:28:51;32.10;53.90
10121;DHT22;5100;45.176;5.714;2022-07-23T09:31:17;32.10;53.90
10121;DHT22;5100;45.176;5.714;2022-07-23T09:33:43;32.10;53.70
10121;DHT22;5100;45.176;5.714;2022-07-23T09:36:09;32.10;53.60
10121;DHT22;5100;45.176;5.714;2022-07-23T09:38:48;32.10;53.50
10121;DHT22;5100;45.176;5.714;2022-07-23T09:41:16;32.10;53.60
10121;DHT22;5100;45.176;5.714;2022-07-23T09:43:42;32.10;53.50
10121;DHT22;5100;45.176;5.714;2022-07-23T09:48:44;32.10;53.40
10121;DHT22;5100;45.176;5.714;2022-07-23T09:51:10;32.20;53.30
10121;DHT22;5100;45.176;5.714;2022-07-23T09:53:36;32.20;53.40
10121;DHT22;5100;45.176;5.714;2022-07-23T09:56:02;32.20;53.30
10121;DHT22;5100;45.176;5.714;2022-07-23T09:58:29;32.20;52.90
10121;DHT22;5100;45.176;5.714;2022-07-23T10:00:57;32.30;52.90
10121;DHT22;5100;45.176;5.714;2022-07-23T10:03:24;32.30;52.60
10121;DHT22;5100;45.176;5.714;2022-07-23T10:05:53;32.40;52.50
10121;DHT22;5100;45.176;5.714;2022-07-23T10:08:22;32.40;52.50
10121;DHT22;5100;45.176;5.714;2022-07-23T10:10:51;32.40;52.50
10121;DHT22;5100;45.176;5.714;2022-07-23T10:13:19;32.50;52.30
10121;DHT22;5100;45.176;5.714;2022-07-23T10:16:04;32.50;52.30
10121;DHT22;5100;45.176;5.714;2022-07-23T10:18:30;32.50;52.00
10121;DHT22;5100;45.176;5.714;2022-07-23T10:20:57;32.60;52.00
10121;DHT22;5100;45.176;5.714;2022-07-23T10:26:10;32.60;51.70
10121;DHT22;5100;45.176;5.714;2022-07-23T10:31:38;32.70;51.50
10121;DHT22;5100;45.176;5.714;2022-07-23T10:37:06;32.70;51.60
10121;DHT22;5100;45.176;5.714;2022-07-23T10:39:34;32.70;51.40
10121;DHT22;5100;45.176;5.714;2022-07-23T10:42:17;32.70;51.40
10121;DHT22;5100;45.176;5.714;2022-07-23T10:44:45;32.70;51.40
10121;DHT22;5100;45.176;5.714;2022-07-23T10:47:25;32.70;51.10
10121;DHT22;5100;45.176;5.714;2022-07-23T10:50:37;32.70;50.80
10121;DHT22;5100;45.176;5.714;2022-07-23T10:57:58;32.80;50.80
10121;DHT22;5100;45.176;5.714;2022-07-23T11:00:29;32.90;50.80
10121;DHT22;5100;45.176;5.714;2022-07-23T11:02:58;32.90;50.80
10121;DHT22;5100;45.176;5.714;2022-07-23T11:05:43;33.00;50.60
10121;DHT22;5100;45.176;5.714;2022-07-23T11:08:12;33.00;50.60
10121;DHT22;5100;45.176;5.714;2022-07-23T11:10:45;33.10;50.60
10121;DHT22;5100;45.176;5.714;2022-07-23T11:24:00;33.30;50.30
10121;DHT22;5100;45.176;5.714;2022-07-23T11:34:41;33.30;50.10
10121;DHT22;5100;45.176;5.714;2022-07-23T11:37:11;33.40;50.00
10121;DHT22;5100;45.176;5.714;2022-07-23T11:39:39;33.30;50.10
10121;DHT22;5100;45.176;5.714;2022-07-23T11:42:07;33.30;50.20
10121;DHT22;5100;45.176;5.714;2022-07-23T11:44:38;33.30;50.40
10121;DHT22;5100;45.176;5.714;2022-07-23T11:47:13;33.30;50.30
10121;DHT22;5100;45.176;5.714;2022-07-23T11:49:55;33.30;50.30
10121;DHT22;5100;45.176;5.714;2022-07-23T11:52:22;33.40;50.20
10121;DHT22;5100;45.176;5.714;2022-07-23T11:57:19;33.40;50.10
10121;DHT22;5100;45.176;5.714;2022-07-23T11:59:47;33.40;50.10
10121;DHT22;5100;45.176;5.714;2022-07-23T12:02:15;33.50;50.10
10121;DHT22;5100;45.176;5.714;2022-07-23T12:04:44;33.50;50.00
10121;DHT22;5100;45.176;5.714;2022-07-23T12:10:00;33.50;49.90
10121;DHT22;5100;45.176;5.714;2022-07-23T12:12:26;33.60;49.90
10121;DHT22;5100;45.176;5.714;2022-07-23T12:14:58;33.60;49.80
10121;DHT22;5100;45.176;5.714;2022-07-23T12:17:29;33.60;49.80
10121;DHT22;5100;45.176;5.714;2022-07-23T12:20:00;33.60;49.90
10121;DHT22;5100;45.176;5.714;2022-07-23T12:22:39;33.60;49.90
10121;DHT22;5100;45.176;5.714;2022-07-23T12:25:08;33.60;49.90
10121;DHT22;5100;45.176;5.714;2022-07-23T12:27:35;33.60;50.00
10121;DHT22;5100;45.176;5.714;2022-07-23T12:32:49;33.60;49.90
10121;DHT22;5100;45.176;5.714;2022-07-23T12:35:15;33.60;49.80
10121;DHT22;5100;45.176;5.714;2022-07-23T12:37:43;33.70;49.80
10121;DHT22;5100;45.176;5.714;2022-07-23T12:40:34;33.70;49.70
10121;DHT22;5100;45.176;5.714;2022-07-23T12:43:10;33.70;49.70
10121;DHT22;5100;45.176;5.714;2022-07-23T12:45:45;33.70;49.70
10121;DHT22;5100;45.176;5.714;2022-07-23T12:53:20;33.80;49.70
10121;DHT22;5100;45.176;5.714;2022-07-23T12:55:48;33.90;49.60
10121;DHT22;5100;45.176;5.714;2022-07-23T12:58:19;33.90;49.50
10121;DHT22;5100;45.176;5.714;2022-07-23T13:05:53;34.00;49.10
10121;DHT22;5100;45.176;5.714;2022-07-23T13:08:18;34.10;49.00
10121;DHT22;5100;45.176;5.714;2022-07-23T13:10:45;34.10;49.00
10121;DHT22;5100;45.176;5.714;2022-07-23T13:13:15;34.10;49.00
10121;DHT22;5100;45.176;5.714;2022-07-23T13:15:42;34.10;49.00
10121;DHT22;5100;45.176;5.714;2022-07-23T13:18:09;34.20;48.90
10121;DHT22;5100;45.176;5.714;2022-07-23T13:20:35;34.20;49.00
10121;DHT22;5100;45.176;5.714;2022-07-23T13:23:02;34.20;49.10
10121;DHT22;5100;45.176;5.714;2022-07-23T13:25:28;34.20;49.20
10121;DHT22;5100;45.176;5.714;2022-07-23T13:27:54;34.20;49.20
10121;DHT22;5100;45.176;5.714;2022-07-23T13:30:20;34.30;49.10
10121;DHT22;5100;45.176;5.714;2022-07-23T13:32:48;34.20;49.10
10121;DHT22;5100;45.176;5.714;2022-07-23T13:35:14;34.20;49.20
10121;DHT22;5100;45.176;5.714;2022-07-23T13:37:40;34.20;49.20
10121;DHT22;5100;45.176;5.714;2022-07-23T13:40:07;34.20;49.20
10121;DHT22;5100;45.176;5.714;2022-07-23T13:42:33;34.20;49.20
10121;DHT22;5100;45.176;5.714;2022-07-23T13:44:59;34.10;49.30
10121;DHT22;5100;45.176;5.714;2022-07-23T13:47:25;34.10;49.40
10121;DHT22;5100;45.176;5.714;2022-07-23T13:49:51;34.10;49.30
10121;DHT22;5100;45.176;5.714;2022-07-23T13:52:17;34.10;49.30
10121;DHT22;5100;45.176;5.714;2022-07-23T13:54:44;34.10;49.40
10121;DHT22;5100;45.176;5.714;2022-07-23T13:57:09;34.10;49.40
10121;DHT22;5100;45.176;5.714;2022-07-23T13:59:36;34.10;49.40
10121;DHT22;5100;45.176;5.714;2022-07-23T14:02:03;34.10;49.50
10121;DHT22;5100;45.176;5.714;2022-07-23T14:04:29;34.10;49.40
10121;DHT22;5100;45.176;5.714;2022-07-23T14:06:56;34.00;49.40
10121;DHT22;5100;45.176;5.714;2022-07-23T14:09:22;34.10;49.40
10121;DHT22;5100;45.176;5.714;2022-07-23T14:11:48;34.10;49.50
10121;DHT22;5100;45.176;5.714;2022-07-23T14:14:17;34.10;49.40
10121;DHT22;5100;45.176;5.714;2022-07-23T14:16:43;34.00;49.50
10121;DHT22;5100;45.176;5.714;2022-07-23T14:19:10;34.00;49.50
10121;DHT22;5100;45.176;5.714;2022-07-23T14:21:36;34.10;49.40
10121;DHT22;5100;45.176;5.714;2022-07-23T14:24:03;34.00;49.40
10121;DHT22;5100;45.176;5.714;2022-07-23T14:26:29;34.00;49.50
10121;DHT22;5100;45.176;5.714;2022-07-23T14:28:55;34.00;49.60
10121;DHT22;5100;45.176;5.714;2022-07-23T14:31:22;34.00;49.70
10121;DHT22;5100;45.176;5.714;2022-07-23T14:33:48;34.00;49.60
10121;DHT22;5100;45.176;5.714;2022-07-23T14:36:15;34.00;49.60
10121;DHT22;5100;45.176;5.714;2022-07-23T14:38:41;34.00;49.60
10121;DHT22;5100;45.176;5.714;2022-07-23T14:41:07;34.00;49.60
10121;DHT22;5100;45.176;5.714;2022-07-23T14:43:33;34.00;49.80
10121;DHT22;5100;45.176;5.714;2022-07-23T14:45:59;34.00;49.80
10121;DHT22;5100;45.176;5.714;2022-07-23T14:48:26;34.00;49.80
10121;DHT22;5100;45.176;5.714;2022-07-23T14:50:52;34.00;49.70
10121;DHT22;5100;45.176;5.714;2022-07-23T14:53:18;34.10;49.80
10121;DHT22;5100;45.176;5.714;2022-07-23T14:55:44;34.00;49.80
10121;DHT22;5100;45.176;5.714;2022-07-23T14:58:10;34.00;49.80
10121;DHT22;5100;45.176;5.714;2022-07-23T15:00:36;34.00;49.90
10121;DHT22;5100;45.176;5.714;2022-07-23T15:03:02;34.00;49.90
10121;DHT22;5100;45.176;5.714;2022-07-23T15:05:28;34.00;49.70
10121;DHT22;5100;45.176;5.714;2022-07-23T15:07:55;34.00;49.90
10121;DHT22;5100;45.176;5.714;2022-07-23T15:10:21;34.00;49.90
10121;DHT22;5100;45.176;5.714;2022-07-23T15:12:47;34.00;49.90
10121;DHT22;5100;45.176;5.714;2022-07-23T15:15:13;33.90;49.90
10121;DHT22;5100;45.176;5.714;2022-07-23T15:17:40;33.90;49.90
10121;DHT22;5100;45.176;5.714;2022-07-23T15:20:06;33.90;49.70
10121;DHT22;5100;45.176;5.714;2022-07-23T15:22:32;33.90;49.80
10121;DHT22;5100;45.176;5.714;2022-07-23T15:24:59;33.80;49.90
10121;DHT22;5100;45.176;5.714;2022-07-23T15:27:24;33.80;49.90
10121;DHT22;5100;45.176;5.714;2022-07-23T15:29:50;33.80;49.90
10121;DHT22;5100;45.176;5.714;2022-07-23T15:32:17;33.80;49.80
10121;DHT22;5100;45.176;5.714;2022-07-23T15:34:42;33.80;49.90
10121;DHT22;5100;45.176;5.714;2022-07-23T15:37:08;33.70;50.00
10121;DHT22;5100;45.176;5.714;2022-07-23T15:39:35;33.70;50.10
10121;DHT22;5100;45.176;5.714;2022-07-23T15:42:01;33.70;50.10
10121;DHT22;5100;45.176;5.714;2022-07-23T15:44:27;33.70;50.10
10121;DHT22;5100;45.176;5.714;2022-07-23T15:46:54;33.70;50.10
10121;DHT22;5100;45.176;5.714;2022-07-23T15:49:21;33.70;49.90
10121;DHT22;5100;45.176;5.714;2022-07-23T15:51:47;33.70;49.90
10121;DHT22;5100;45.176;5.714;2022-07-23T15:54:13;33.70;49.80
10121;DHT22;5100;45.176;5.714;2022-07-23T15:56:39;33.70;49.90
10121;DHT22;5100;45.176;5.714;2022-07-23T15:59:08;33.60;49.70
10121;DHT22;5100;45.176;5.714;2022-07-23T16:01:34;33.70;49.60
10121;DHT22;5100;45.176;5.714;2022-07-23T16:04:00;33.70;49.50
10121;DHT22;5100;45.176;5.714;2022-07-23T16:06:26;33.70;49.40
10121;DHT22;5100;45.176;5.714;2022-07-23T16:08:53;33.70;49.40
10121;DHT22;5100;45.176;5.714;2022-07-23T16:11:19;33.70;49.20
10121;DHT22;5100;45.176;5.714;2022-07-23T16:13:45;33.70;49.30
10121;DHT22;5100;45.176;5.714;2022-07-23T16:16:11;33.70;49.20
10121;DHT22;5100;45.176;5.714;2022-07-23T16:18:38;33.70;49.10
10121;DHT22;5100;45.176;5.714;2022-07-23T16:21:04;33.70;49.10
10121;DHT22;5100;45.176;5.714;2022-07-23T16:23:30;33.70;48.90
10121;DHT22;5100;45.176;5.714;2022-07-23T16:25:59;33.70;48.90
10121;DHT22;5100;45.176;5.714;2022-07-23T16:28:25;33.70;48.80
10121;DHT22;5100;45.176;5.714;2022-07-23T16:30:51;33.70;48.80
10121;DHT22;5100;45.176;5.714;2022-07-23T16:33:17;33.70;48.80
10121;DHT22;5100;45.176;5.714;2022-07-23T16:35:43;33.70;48.80
10121;DHT22;5100;45.176;5.714;2022-07-23T16:38:09;33.70;48.80
10121;DHT22;5100;45.176;5.714;2022-07-23T16:40:35;33.80;48.80
10121;DHT22;5100;45.176;5.714;2022-07-23T16:43:02;33.70;48.80
10121;DHT22;5100;45.176;5.714;2022-07-23T16:45:28;33.70;48.80
10121;DHT22;5100;45.176;5.714;2022-07-23T16:47:56;33.70;48.90